createdAt,value
2019-05-22T04:03:52.684Z,96.27
2019-05-22T04:06:24.089Z,95.00
2019-05-22T04:08:54.400Z,93.50
2019-05-22T04:11:27.814Z,97.60
2019-05-22T04:13:58.311Z,97.02
2019-05-22T04:16:29.322Z,96.75
2019-05-22T04:19:00.656Z,99.30
2019-05-22T04:21:32.605Z,98.90
2019-05-22T04:24:03.199Z,96.00
2019-05-22T04:26:35.047Z,97.73
2019-05-22T04:29:06.997Z,95.50
2019-05-22T04:32:06.894Z,99.00
2019-05-22T04:34:38.009Z,98.50
2019-05-22T04:37:10.624Z,94.83
2019-05-22T04:39:43.796Z,92.93
2019-05-22T04:42:14.645Z,91.60
2019-05-22T04:45:10.705Z,90.60
2019-05-22T04:47:41.006Z,92.20
2019-05-22T04:50:12.419Z,92.97
2019-05-22T04:52:44.204Z,89.70
2019-05-22T04:55:18.851Z,92.53
2019-05-22T04:57:49.940Z,102.87
2019-05-22T05:00:21.188Z,127.27
2019-05-22T05:02:52.873Z,91.00
2019-05-22T05:05:27.101Z,91.87
2019-05-22T05:07:59.106Z,90.35
2019-05-22T05:10:30.395Z,90.03
2019-05-22T05:13:00.722Z,104.70
2019-05-22T05:15:31.736Z,91.80
2019-05-22T05:18:03.004Z,152.77
2019-05-22T05:20:34.325Z,92.73
2019-05-22T05:23:04.643Z,100.00
2019-05-22T05:25:35.694Z,93.93
2019-05-22T05:28:07.697Z,92.67
2019-05-22T05:30:38.734Z,94.63
2019-05-22T05:33:11.092Z,110.00
2019-05-22T05:35:42.445Z,101.65
2019-05-22T05:38:13.971Z,99.20
2019-05-22T05:40:45.381Z,104.80
2019-05-22T05:43:18.435Z,109.13
2019-05-22T05:45:50.405Z,105.83
2019-05-22T05:48:23.702Z,102.67
2019-05-22T05:51:30.331Z,98.20
2019-05-22T05:54:12.886Z,93.90
2019-05-22T05:56:45.561Z,93.37
2019-05-22T05:59:17.864Z,94.13
2019-05-22T06:01:58.949Z,95.00
2019-05-22T06:04:39.167Z,92.93
2019-05-22T06:07:20.899Z,96.33
2019-05-22T06:10:42.903Z,94.67
2019-05-22T06:13:13.175Z,104.20
2019-05-22T06:16:20.851Z,114.63
2019-05-22T06:18:53.141Z,104.10
2019-05-22T06:21:23.496Z,107.43
2019-05-22T06:24:27.726Z,101.37
2019-05-22T06:27:22.347Z,99.90
2019-05-22T06:30:06.563Z,95.83
2019-05-22T06:33:34.126Z,91.22
2019-05-22T06:36:09.084Z,101.50
2019-05-22T06:39:17.297Z,102.23
2019-05-22T06:41:49.651Z,96.07
2019-05-22T06:44:32.724Z,98.80
2019-05-22T06:47:03.038Z,102.40
2019-05-22T06:49:46.213Z,104.30
2019-05-22T06:52:17.163Z,113.50
2019-05-22T06:54:50.075Z,97.50
2019-05-22T06:57:27.420Z,102.97
2019-05-22T07:00:13.288Z,100.38
2019-05-22T07:02:34.724Z,100.20
2019-05-22T07:05:07.908Z,105.35
2019-05-22T07:07:38.841Z,104.27
2019-05-22T07:10:12.743Z,104.60
2019-05-22T07:12:50.580Z,105.85
2019-05-22T07:15:25.798Z,109.30
2019-05-22T07:17:57.050Z,108.10
2019-05-22T07:20:31.108Z,106.23
2019-05-22T07:23:02.065Z,107.60
2019-05-22T07:25:35.060Z,105.80
2019-05-22T07:28:06.954Z,108.97
2019-05-22T07:30:37.227Z,103.03
2019-05-22T07:33:08.331Z,109.60
2019-05-22T07:35:50.261Z,107.27
2019-05-22T07:38:10.472Z,107.55
2019-05-22T07:40:41.175Z,104.93
2019-05-22T07:43:11.530Z,108.30
2019-05-22T07:45:42.551Z,112.20
2019-05-22T07:48:14.187Z,112.28
2019-05-22T07:50:48.814Z,113.60
2019-05-22T07:53:18.497Z,116.47
2019-05-22T07:55:51.618Z,114.03
2019-05-22T07:58:22.395Z,113.90
2019-05-22T08:01:01.644Z,115.87
2019-05-22T08:03:32.604Z,115.00
2019-05-22T08:06:03.085Z,119.73
2019-05-22T08:08:35.190Z,124.50
2019-05-22T08:11:06.548Z,112.57
2019-05-22T08:13:37.913Z,117.63
2019-05-22T08:16:09.490Z,115.77
2019-05-22T08:18:41.414Z,113.10
2019-05-22T08:21:11.923Z,110.12
2019-05-22T08:23:42.308Z,109.87
2019-05-22T08:26:14.888Z,114.47
2019-05-22T08:28:45.149Z,111.87
2019-05-22T08:31:15.837Z,114.85
2019-05-22T08:33:46.271Z,110.35
2019-05-22T08:36:17.831Z,109.47
2019-05-22T08:38:48.263Z,107.77
2019-05-22T08:41:23.772Z,110.32
2019-05-22T08:44:14.535Z,109.80
2019-05-22T08:46:27.177Z,111.20
2019-05-22T08:48:58.100Z,109.20
2019-05-22T08:51:29.141Z,111.47
2019-05-22T08:54:00.884Z,117.40
2019-05-22T08:56:37.065Z,106.20
2019-05-22T08:59:19.130Z,107.03
2019-05-22T09:01:40.677Z,106.43
2019-05-22T09:04:11.893Z,111.30
2019-05-22T09:06:42.754Z,108.47
2019-05-22T09:09:17.072Z,111.20
2019-05-22T09:11:47.303Z,111.30
2019-05-22T09:14:18.409Z,110.12
2019-05-22T09:16:48.874Z,112.83
2019-05-22T09:19:19.918Z,110.17
2019-05-22T09:21:50.135Z,113.22
2019-05-22T09:24:21.133Z,112.85
2019-05-22T09:26:53.028Z,120.30
2019-05-22T09:29:25.780Z,109.15
2019-05-22T09:31:55.976Z,117.55
2019-05-22T09:34:26.672Z,120.42
2019-05-22T09:36:57.622Z,119.13
2019-05-22T09:39:27.952Z,121.60
2019-05-22T09:41:58.179Z,118.03
2019-05-22T09:44:28.509Z,117.87
2019-05-22T09:46:59.141Z,113.75
2019-05-22T09:49:29.772Z,118.13
2019-05-22T09:52:00.454Z,115.13
2019-05-22T09:54:31.750Z,115.00
2019-05-22T09:57:25.000Z,113.40
2019-05-22T10:00:23.790Z,113.23
2019-05-22T10:03:20.324Z,112.80
2019-05-22T10:06:21.362Z,112.87
2019-05-22T10:09:13.566Z,108.55
2019-05-22T10:12:09.149Z,106.90
2019-05-22T10:15:05.114Z,110.13
2019-05-22T10:18:01.596Z,109.60
2019-05-22T10:20:58.300Z,108.37
2019-05-22T10:23:53.670Z,104.27
2019-05-22T10:26:51.418Z,108.60
2019-05-22T10:29:47.052Z,106.20
2019-05-22T10:32:43.882Z,108.17
2019-05-22T10:35:39.912Z,102.57
2019-05-22T10:38:36.705Z,104.50
2019-05-22T10:41:33.235Z,103.93
2019-05-22T10:44:28.924Z,102.87
2019-05-22T10:47:27.775Z,110.30
2019-05-22T10:50:28.336Z,105.27
2019-05-22T10:53:33.845Z,107.97
2019-05-22T10:56:22.642Z,190.35
2019-05-22T10:59:19.233Z,101.80
2019-05-22T11:02:16.265Z,103.38
2019-05-22T11:05:11.895Z,102.90
2019-05-22T11:08:08.750Z,108.53
2019-05-22T11:11:05.331Z,110.17
2019-05-22T11:14:02.321Z,107.12
2019-05-22T11:17:01.399Z,109.03
2019-05-22T11:19:55.813Z,105.27
2019-05-22T11:22:53.242Z,110.40
2019-05-22T11:25:49.912Z,104.30
2019-05-22T11:28:47.660Z,104.47
2019-05-22T11:31:43.963Z,104.70
2019-05-22T11:34:41.823Z,104.50
2019-05-22T11:37:37.441Z,102.83
2019-05-22T11:40:35.010Z,102.53
2019-05-22T11:43:31.429Z,107.63
2019-05-22T11:46:29.241Z,107.67
2019-05-22T11:49:24.586Z,102.22
2019-05-22T11:52:21.104Z,103.77
2019-05-22T11:55:18.504Z,106.00
2019-05-22T11:58:15.879Z,102.87
2019-05-22T12:01:12.313Z,103.03
2019-05-22T12:04:08.043Z,105.17
2019-05-22T12:07:06.781Z,100.87
2019-05-22T12:10:02.485Z,104.57
2019-05-22T12:12:59.015Z,108.30
2019-05-22T12:15:55.882Z,106.97
2019-05-22T12:18:53.452Z,107.10
2019-05-22T12:21:50.745Z,106.07
2019-05-22T12:24:47.311Z,104.53
2019-05-22T12:27:46.094Z,105.80
2019-05-22T12:30:42.694Z,108.73
2019-05-22T12:33:40.385Z,106.20
2019-05-22T12:36:36.644Z,104.30
2019-05-22T12:39:33.577Z,101.77
2019-05-22T12:42:30.439Z,105.07
2019-05-22T12:45:26.995Z,105.77
2019-05-22T12:48:25.730Z,102.30
2019-05-22T12:51:22.037Z,106.77
2019-05-22T12:54:19.576Z,107.50
2019-05-22T12:57:17.223Z,107.37
2019-05-22T13:00:12.976Z,106.13
2019-05-22T13:03:17.866Z,104.40
2019-05-22T13:06:24.708Z,104.07
2019-05-22T13:09:29.745Z,106.57
2019-05-22T13:12:27.453Z,107.15
2019-05-22T13:15:23.594Z,107.83
2019-05-22T13:18:26.400Z,104.93
2019-05-22T13:21:24.225Z,106.73
2019-05-22T13:24:23.039Z,105.30
2019-05-22T13:27:19.795Z,106.87
2019-05-22T13:30:17.612Z,106.60
2019-05-22T13:33:15.189Z,105.03
2019-05-22T13:36:11.181Z,104.17
2019-05-22T13:39:07.684Z,118.95
2019-05-22T13:42:03.182Z,105.47
2019-05-22T13:45:00.079Z,108.73
2019-05-22T13:47:56.295Z,105.70
2019-05-22T13:50:52.993Z,106.60
2019-05-22T13:53:51.000Z,104.90
2019-05-22T13:56:46.589Z,109.20
2019-05-22T13:59:44.101Z,104.97
2019-05-22T14:02:40.753Z,106.57
2019-05-22T14:05:38.131Z,100.50
2019-05-22T14:08:35.941Z,111.73
2019-05-22T14:11:31.299Z,105.97
2019-05-22T14:14:29.117Z,104.80
2019-05-22T14:17:25.630Z,107.50
2019-05-22T14:20:28.873Z,105.20
2019-05-22T14:23:24.376Z,102.83
2019-05-22T14:26:21.879Z,103.90
2019-05-22T14:29:20.732Z,102.50
2019-05-22T14:32:16.292Z,102.50
2019-05-22T14:35:13.937Z,100.35
2019-05-22T14:38:09.517Z,101.10
2019-05-22T14:41:06.155Z,99.80
2019-05-22T14:44:02.364Z,104.70
2019-05-22T14:47:12.419Z,98.73
2019-05-22T14:49:57.575Z,97.90
2019-05-22T14:52:54.425Z,99.17
2019-05-22T14:55:52.029Z,98.27
2019-05-22T14:58:48.784Z,97.85
2019-05-22T15:01:46.552Z,98.63
2019-05-22T15:04:43.242Z,96.70
2019-05-22T15:07:40.152Z,98.50
2019-05-22T15:10:37.293Z,95.70
2019-05-22T15:13:37.891Z,97.47
2019-05-22T15:16:33.928Z,96.27
2019-05-22T15:19:30.742Z,95.20
2019-05-22T15:22:37.318Z,95.80
2019-05-22T15:25:39.089Z,93.40
2019-05-22T15:28:42.281Z,95.20
2019-05-22T15:31:39.063Z,96.73
2019-05-22T15:34:35.450Z,93.07
2019-05-22T15:37:32.107Z,91.67
2019-05-22T15:40:29.302Z,95.10
2019-05-22T15:43:26.300Z,96.02
2019-05-22T15:46:23.634Z,91.73
2019-05-22T15:49:19.205Z,90.90
2019-05-22T15:52:17.828Z,91.17
2019-05-22T15:55:13.316Z,89.20
2019-05-22T15:58:10.667Z,89.90
2019-05-22T16:01:08.143Z,87.30
2019-05-22T16:04:04.002Z,88.73
2019-05-22T16:07:01.621Z,87.63
2019-05-22T16:09:57.491Z,88.37
2019-05-22T16:12:54.447Z,85.75
2019-05-22T16:15:50.076Z,88.27
2019-05-22T16:18:46.559Z,86.27
2019-05-22T16:21:47.497Z,87.00
2019-05-22T16:24:42.813Z,85.03
2019-05-22T16:27:39.398Z,87.17
2019-05-22T16:30:35.057Z,85.13
2019-05-22T16:33:31.618Z,84.55
2019-05-22T16:36:28.417Z,84.73
2019-05-22T16:39:23.915Z,84.13
2019-05-22T16:42:20.722Z,86.50
2019-05-22T16:45:17.575Z,84.17
2019-05-22T16:48:27.667Z,83.37
2019-05-22T16:51:11.063Z,83.60
2019-05-22T16:54:10.185Z,84.50
2019-05-22T16:57:08.183Z,83.40
2019-05-22T17:00:04.908Z,86.77
2019-05-22T17:03:02.605Z,83.22
2019-05-22T17:05:59.238Z,83.67
2019-05-22T17:08:55.903Z,83.52
2019-05-22T17:11:52.589Z,82.85
2019-05-22T17:14:48.874Z,81.07
2019-05-22T17:17:46.019Z,81.23
2019-05-22T17:20:42.666Z,81.10
2019-05-22T17:23:39.523Z,81.37
2019-05-22T17:26:42.379Z,79.55
2019-05-22T17:29:39.037Z,82.50
2019-05-22T17:32:37.567Z,80.07
2019-05-22T17:35:48.086Z,80.27
2019-05-22T17:38:46.914Z,80.23
2019-05-22T17:41:43.780Z,79.53
2019-05-22T17:44:48.066Z,80.40
2019-05-22T17:47:45.468Z,80.30
2019-05-22T17:50:43.197Z,81.93
2019-05-22T17:53:39.935Z,79.00
2019-05-22T17:56:36.586Z,79.77
2019-05-22T17:59:34.383Z,80.37
2019-05-22T18:02:30.972Z,83.00
2019-05-22T18:05:28.057Z,81.33
2019-05-22T18:08:32.034Z,79.97
2019-05-22T18:11:28.707Z,81.20
2019-05-22T18:14:25.374Z,81.90
2019-05-22T18:17:25.557Z,85.25
2019-05-22T18:20:22.449Z,81.10
2019-05-22T18:23:19.280Z,81.90
2019-05-22T18:26:16.166Z,82.97
2019-05-22T18:29:14.188Z,81.77
2019-05-22T18:32:09.986Z,81.20
2019-05-22T18:35:06.848Z,83.00
2019-05-22T18:38:04.967Z,82.60
2019-05-22T18:41:00.685Z,84.95
2019-05-22T18:43:57.538Z,85.40
2019-05-22T18:46:52.651Z,80.57
2019-05-22T18:49:49.463Z,83.67
2019-05-22T18:52:47.120Z,85.50
2019-05-22T18:55:43.862Z,85.00
2019-05-22T18:58:39.662Z,89.70
2019-05-22T19:01:36.372Z,84.37
2019-05-22T19:04:33.534Z,85.17
2019-05-22T19:07:29.513Z,86.60
2019-05-22T19:10:25.551Z,87.37
2019-05-22T19:13:22.521Z,86.50
2019-05-22T19:16:19.334Z,87.27
2019-05-22T19:19:15.056Z,87.50
2019-05-22T19:22:12.614Z,84.47
2019-05-22T19:25:09.607Z,84.72
2019-05-22T19:28:05.188Z,85.30
2019-05-22T19:31:01.113Z,88.53
2019-05-22T19:33:56.686Z,87.50
2019-05-22T19:36:53.754Z,88.33
2019-05-22T19:39:50.474Z,86.70
2019-05-22T19:42:47.098Z,91.93
2019-05-22T19:45:44.904Z,87.40
2019-05-22T19:48:42.705Z,86.53
2019-05-22T19:51:39.918Z,87.07
2019-05-22T19:54:36.674Z,88.07
2019-05-22T19:57:32.585Z,86.87
2019-05-22T20:00:30.313Z,86.00
2019-05-22T20:03:25.793Z,90.00
2019-05-22T20:06:22.459Z,86.67
2019-05-22T20:09:19.273Z,86.27
2019-05-22T20:12:16.822Z,89.67
2019-05-22T20:15:12.730Z,88.93
2019-05-22T20:18:09.451Z,88.93
2019-05-22T20:21:07.824Z,89.83
2019-05-22T20:24:04.540Z,86.83
2019-05-22T20:27:02.594Z,85.17
2019-05-22T20:30:00.186Z,89.50
2019-05-22T20:32:58.039Z,87.17
2019-05-22T20:35:54.653Z,88.37
2019-05-22T20:38:51.301Z,85.60
2019-05-22T20:41:49.267Z,86.90
2019-05-22T20:44:46.151Z,88.50
2019-05-22T20:47:44.186Z,89.75
2019-05-22T20:50:42.000Z,90.90
2019-05-22T20:53:52.760Z,88.80
2019-05-22T20:56:36.735Z,88.40
2019-05-22T20:59:33.621Z,91.90
2019-05-22T21:02:31.927Z,91.17
2019-05-22T21:05:28.603Z,95.33
2019-05-22T21:08:25.060Z,91.33
2019-05-22T21:11:21.725Z,89.10
2019-05-22T21:14:19.071Z,91.07
2019-05-22T21:17:15.643Z,89.97
2019-05-22T21:20:15.098Z,91.30
2019-05-22T21:23:12.772Z,90.80
2019-05-22T21:26:09.501Z,93.07
2019-05-22T21:32:01.500Z,88.33
2019-05-22T21:34:57.664Z,89.73
2019-05-22T21:37:53.689Z,88.50
2019-05-22T21:40:50.564Z,90.07
2019-05-22T21:43:47.366Z,89.27
2019-05-22T21:46:44.115Z,92.70
2019-05-22T21:49:42.957Z,94.20
2019-05-22T21:52:40.607Z,93.23
2019-05-22T21:55:37.228Z,94.70
2019-05-22T21:58:34.580Z,94.70
2019-05-22T22:01:45.757Z,96.20
2019-05-22T22:04:45.869Z,94.13
2019-05-22T22:07:42.390Z,90.50
2019-05-22T22:10:39.361Z,91.27
2019-05-22T22:13:35.969Z,95.10
2019-05-22T22:16:32.232Z,92.90
2019-05-22T22:19:37.938Z,93.27
2019-05-22T22:22:48.748Z,95.40
2019-05-22T22:25:45.285Z,94.40
2019-05-22T22:28:42.896Z,93.57
2019-05-22T22:31:39.400Z,95.97
2019-05-22T22:34:39.767Z,94.93
2019-05-22T22:37:35.778Z,98.30
2019-05-22T22:40:33.471Z,89.83
2019-05-22T22:43:30.152Z,94.03
2019-05-22T22:46:38.967Z,93.63
2019-05-22T22:49:35.205Z,97.50
2019-05-22T22:52:34.992Z,96.27
2019-05-22T22:55:32.295Z,89.97
2019-05-22T22:58:28.092Z,92.90
2019-05-22T23:01:26.531Z,98.23
2019-05-22T23:04:24.059Z,91.97
2019-05-22T23:07:20.622Z,90.10
2019-05-22T23:10:17.454Z,91.80
2019-05-22T23:13:12.974Z,93.50
2019-05-22T23:16:08.772Z,92.37
2019-05-22T23:19:42.963Z,89.63
2019-05-22T23:22:33.600Z,89.67
2019-05-22T23:25:30.066Z,89.27
2019-05-22T23:28:34.838Z,91.80
2019-05-22T23:31:22.302Z,91.25
2019-05-22T23:34:17.877Z,89.77
2019-05-22T23:37:15.366Z,89.83
2019-05-22T23:40:14.321Z,91.67
2019-05-22T23:43:08.934Z,92.77
2019-05-22T23:46:05.705Z,89.40
2019-05-22T23:49:01.488Z,94.23
2019-05-22T23:51:58.038Z,90.40
2019-05-22T23:54:54.124Z,90.87
2019-05-22T23:57:50.720Z,91.47
